createdAt,value
2022-09-01T00:01:52.156Z,19.32
2022-09-01T00:04:23.175Z,19.30
2022-09-01T00:06:49.838Z,19.28
2022-09-01T00:09:19.987Z,19.21
2022-09-01T00:11:50.775Z,19.15
2022-09-01T00:14:30.561Z,19.09
2022-09-01T00:17:04.046Z,19.08
2022-09-01T00:19:31.105Z,19.06
2022-09-01T00:21:58.012Z,19.02
2022-09-01T00:24:26.392Z,19.02
2022-09-01T00:26:54.213Z,18.93
2022-09-01T00:29:21.097Z,18.86
2022-09-01T00:31:48.029Z,18.86
2022-09-01T00:34:15.174Z,18.85
2022-09-01T00:36:41.829Z,18.82
2022-09-01T00:39:09.245Z,18.84
2022-09-01T00:41:39.692Z,18.75
2022-09-01T00:44:12.010Z,18.70
2022-09-01T00:46:49.806Z,18.68
2022-09-01T00:49:42.182Z,18.73
2022-09-01T00:52:32.534Z,18.70
2022-09-01T00:55:04.382Z,18.67
2022-09-01T00:57:31.051Z,18.64
2022-09-01T01:00:30.016Z,18.66
2022-09-01T01:02:57.643Z,18.71
2022-09-01T01:05:28.079Z,18.69
2022-09-01T01:07:55.928Z,18.65
2022-09-01T01:10:23.276Z,18.71
2022-09-01T01:12:51.744Z,18.72
2022-09-01T01:15:19.611Z,18.69
2022-09-01T01:17:46.641Z,18.69
2022-09-01T01:20:35.527Z,18.70
2022-09-01T01:23:09.419Z,18.70
2022-09-01T01:25:44.339Z,18.70
2022-09-01T01:28:16.434Z,18.70
2022-09-01T01:30:52.263Z,18.71
2022-09-01T01:33:25.825Z,18.70
2022-09-01T01:35:56.309Z,18.70
2022-09-01T01:38:23.973Z,18.67
2022-09-01T01:40:54.001Z,18.65
2022-09-01T01:43:22.832Z,18.60
2022-09-01T01:45:56.838Z,18.62
2022-09-01T01:48:24.623Z,18.63
2022-09-01T01:50:53.234Z,18.63
2022-09-01T01:53:21.024Z,18.63
2022-09-01T01:55:51.669Z,18.60
2022-09-01T01:58:20.380Z,18.61
2022-09-01T02:00:49.451Z,18.53
2022-09-01T02:03:19.684Z,18.51
2022-09-01T02:05:48.981Z,18.50
2022-09-01T02:08:21.993Z,18.49
2022-09-01T02:10:51.377Z,18.39
2022-09-01T02:13:20.965Z,18.28
2022-09-01T02:15:50.849Z,18.16
2022-09-01T02:18:48.689Z,18.13
2022-09-01T02:21:20.467Z,18.08
2022-09-01T02:23:59.604Z,18.07
2022-09-01T02:26:31.262Z,18.06
2022-09-01T02:29:04.660Z,18.09
2022-09-01T02:31:39.362Z,18.07
2022-09-01T02:34:10.708Z,18.04
2022-09-01T02:36:44.767Z,18.00
2022-09-01T02:39:11.683Z,17.97
2022-09-01T02:41:42.701Z,17.94
2022-09-01T02:44:12.173Z,17.87
2022-09-01T02:46:41.941Z,17.87
2022-09-01T02:49:19.966Z,17.78
2022-09-01T02:51:49.887Z,17.77
2022-09-01T02:54:19.363Z,17.76
2022-09-01T02:56:49.934Z,17.76
2022-09-01T02:59:18.635Z,17.74
2022-09-01T03:01:46.959Z,17.62
2022-09-01T03:04:14.252Z,17.63
2022-09-01T03:06:41.673Z,17.56
2022-09-01T03:09:11.277Z,17.51
2022-09-01T03:11:40.319Z,17.44
2022-09-01T03:14:08.196Z,17.43
2022-09-01T03:16:36.391Z,17.42
2022-09-01T03:19:04.115Z,17.47
2022-09-01T03:21:31.558Z,17.47
2022-09-01T03:23:58.519Z,17.41
2022-09-01T03:26:25.547Z,17.38
2022-09-01T03:28:52.546Z,17.40
2022-09-01T03:31:20.444Z,17.37
2022-09-01T03:33:47.644Z,17.42
2022-09-01T03:36:19.521Z,17.41
2022-09-01T03:38:48.972Z,17.35
2022-09-01T03:41:17.925Z,17.31
2022-09-01T03:43:47.228Z,17.26
2022-09-01T03:46:24.455Z,17.29
2022-09-01T03:48:55.174Z,17.26
2022-09-01T03:51:23.689Z,17.17
2022-09-01T03:53:55.105Z,17.12
2022-09-01T03:56:27.778Z,17.08
2022-09-01T03:58:59.621Z,17.03
2022-09-01T04:01:28.266Z,16.98
2022-09-01T04:03:55.394Z,16.93
2022-09-01T04:06:24.396Z,16.84
2022-09-01T04:09:02.888Z,16.82
2022-09-01T04:11:30.807Z,16.80
2022-09-01T04:13:57.748Z,16.78
2022-09-01T04:16:46.627Z,16.75
2022-09-01T04:19:20.240Z,16.66
2022-09-01T04:21:54.341Z,16.60
2022-09-01T04:24:24.266Z,16.55
2022-09-01T04:26:52.552Z,16.54
2022-09-01T04:29:24.265Z,16.54
2022-09-01T04:31:52.273Z,16.49
2022-09-01T04:34:22.648Z,16.52
2022-09-01T04:36:52.720Z,16.48
2022-09-01T04:39:22.076Z,16.46
2022-09-01T04:41:50.847Z,16.42
2022-09-01T04:44:19.402Z,16.43
2022-09-01T04:46:47.995Z,16.35
2022-09-01T04:49:19.633Z,16.28
2022-09-01T04:51:53.944Z,16.28
2022-09-01T04:54:22.917Z,16.26
2022-09-01T04:56:52.985Z,16.29
2022-09-01T04:59:23.051Z,16.31
2022-09-01T05:01:51.049Z,16.37
2022-09-01T05:04:24.474Z,16.31
2022-09-01T05:06:56.083Z,16.29
2022-09-01T05:09:25.866Z,16.26
2022-09-01T05:11:53.598Z,16.27
2022-09-01T05:14:22.516Z,16.26
2022-09-01T05:16:51.063Z,16.33
2022-09-01T05:19:20.929Z,16.37
2022-09-01T05:21:48.039Z,16.39
2022-09-01T05:24:17.682Z,16.41
2022-09-01T05:26:44.348Z,16.43
2022-09-01T05:29:14.094Z,16.46
2022-09-01T05:31:42.237Z,16.51
2022-09-01T05:34:10.575Z,16.56
2022-09-01T05:36:41.312Z,16.65
2022-09-01T05:39:09.817Z,16.77
2022-09-01T05:41:37.238Z,16.74
2022-09-01T05:44:08.186Z,16.76
2022-09-01T05:46:37.773Z,16.82
2022-09-01T05:49:07.122Z,16.92
2022-09-01T05:51:44.391Z,17.09
2022-09-01T05:54:12.913Z,17.24
2022-09-01T05:56:43.602Z,17.25
2022-09-01T05:59:27.056Z,17.15
2022-09-01T06:01:55.558Z,17.10
2022-09-01T06:04:24.805Z,17.19
2022-09-01T06:07:11.084Z,17.32
2022-09-01T06:09:46.144Z,17.57
2022-09-01T06:12:24.025Z,17.59
2022-09-01T06:14:53.729Z,17.69
2022-09-01T06:17:25.124Z,17.73
2022-09-01T06:19:55.777Z,17.68
2022-09-01T06:22:24.051Z,17.60
2022-09-01T06:24:56.887Z,17.57
2022-09-01T06:27:28.019Z,17.68
2022-09-01T06:29:54.902Z,17.81
2022-09-01T06:32:21.958Z,17.99
2022-09-01T06:34:50.963Z,18.11
2022-09-01T06:37:22.577Z,18.11
2022-09-01T06:39:50.225Z,18.11
2022-09-01T06:42:17.664Z,18.14
2022-09-01T06:44:46.058Z,18.16
2022-09-01T06:47:12.901Z,18.17
2022-09-01T06:49:40.937Z,18.23
2022-09-01T06:52:07.896Z,18.24
2022-09-01T06:54:36.605Z,18.22
2022-09-01T06:59:52.623Z,18.36
2022-09-01T07:02:24.455Z,18.41
2022-09-01T07:04:53.641Z,18.57
2022-09-01T07:10:18.564Z,18.66
2022-09-01T07:18:29.257Z,18.89
2022-09-01T07:21:07.693Z,18.98
2022-09-01T07:24:07.710Z,18.98
2022-09-01T07:26:30.901Z,18.95
2022-09-01T07:29:01.932Z,18.87
2022-09-01T07:39:54.368Z,19.27
2022-09-01T07:45:26.663Z,19.51
2022-09-01T07:47:54.025Z,19.64
2022-09-01T07:53:09.478Z,19.89
2022-09-01T07:55:40.463Z,20.07
2022-09-01T07:58:07.130Z,20.16
2022-09-01T08:00:34.370Z,20.24
2022-09-01T08:03:01.491Z,20.26
2022-09-01T08:05:28.971Z,20.30
2022-09-01T08:07:58.180Z,20.39
2022-09-01T08:10:24.804Z,20.52
2022-09-01T08:12:59.221Z,20.63
2022-09-01T08:16:06.691Z,20.54
2022-09-01T08:18:14.995Z,20.58
2022-09-01T08:20:47.535Z,20.64
2022-09-01T08:23:18.531Z,20.78
2022-09-01T08:25:47.160Z,20.86
2022-09-01T08:28:15.804Z,20.80
2022-09-01T08:30:49.063Z,20.83
2022-09-01T08:33:19.743Z,20.95
2022-09-01T08:35:48.994Z,21.05
2022-09-01T08:38:15.804Z,21.01
2022-09-01T08:40:44.288Z,21.03
2022-09-01T08:43:35.144Z,21.15
2022-09-01T08:46:15.046Z,21.32
2022-09-01T08:51:37.743Z,21.45
2022-09-01T08:54:34.616Z,21.57
2022-09-01T08:57:06.874Z,21.68
2022-09-01T08:59:33.481Z,21.63
2022-09-01T09:02:18.103Z,21.73
2022-09-01T09:05:15.612Z,21.76
2022-09-01T09:08:06.502Z,21.78
2022-09-01T09:10:55.612Z,21.82
2022-09-01T09:13:49.136Z,21.78
2022-09-01T09:16:21.838Z,21.76
2022-09-01T09:18:55.757Z,21.81
2022-09-01T09:21:45.984Z,21.81
2022-09-01T09:24:52.873Z,21.76
2022-09-01T09:27:33.624Z,21.75
2022-09-01T09:30:09.503Z,21.89
2022-09-01T09:33:11.638Z,21.94
2022-09-01T09:35:36.672Z,22.06
2022-09-01T09:38:38.563Z,22.17
2022-09-01T09:41:18.870Z,22.28
2022-09-01T09:44:01.236Z,22.25
2022-09-01T09:46:35.114Z,22.19
2022-09-01T09:49:34.291Z,22.12
2022-09-01T09:52:03.322Z,22.14
2022-09-01T09:54:35.709Z,22.25
2022-09-01T09:57:11.716Z,22.25
2022-09-01T09:59:59.100Z,22.32
2022-09-01T10:02:39.823Z,22.39
2022-09-01T10:05:30.140Z,22.48
2022-09-01T10:07:58.409Z,22.45
2022-09-01T10:10:40.490Z,22.46
2022-09-01T10:13:16.228Z,22.45
2022-09-01T10:15:51.235Z,22.48
2022-09-01T10:18:31.270Z,22.62
2022-09-01T10:21:07.946Z,22.69
2022-09-01T10:23:38.794Z,22.66
2022-09-01T10:26:09.540Z,22.74
2022-09-01T10:28:48.899Z,22.83
2022-09-01T10:31:18.067Z,22.72
2022-09-01T10:33:45.459Z,22.77
2022-09-01T10:36:15.353Z,22.84
2022-09-01T10:38:51.666Z,22.92
2022-09-01T10:42:00.176Z,22.82
2022-09-01T10:44:33.737Z,22.87
2022-09-01T10:47:24.448Z,22.84
2022-09-01T10:49:50.974Z,22.79
2022-09-01T10:52:43.485Z,22.84
2022-09-01T10:55:24.696Z,22.96
2022-09-01T11:01:49.895Z,22.94
2022-09-01T11:04:30.349Z,23.02
2022-09-01T11:07:17.175Z,23.09
2022-09-01T11:10:32.755Z,23.10
2022-09-01T11:13:05.870Z,23.12
2022-09-01T11:15:42.300Z,23.10
2022-09-01T11:18:19.396Z,23.17
2022-09-01T11:20:47.065Z,23.13
2022-09-01T11:23:27.550Z,23.14
2022-09-01T11:28:47.566Z,23.11
2022-09-01T11:31:24.499Z,23.21
2022-09-01T11:34:11.364Z,23.15
2022-09-01T11:36:51.447Z,23.27
2022-09-01T11:39:19.174Z,23.28
2022-09-01T11:41:57.552Z,23.36
2022-09-01T11:44:32.240Z,23.39
2022-09-01T11:47:04.777Z,23.48
2022-09-01T11:49:33.812Z,23.58
2022-09-01T11:52:02.644Z,23.65
2022-09-01T11:54:37.914Z,23.78
2022-09-01T11:57:40.350Z,23.77
2022-09-01T12:00:25.365Z,23.71
2022-09-01T12:02:54.487Z,23.62
2022-09-01T12:05:31.703Z,23.55
2022-09-01T12:07:58.931Z,23.62
2022-09-01T12:10:35.694Z,23.71
2022-09-01T12:13:17.718Z,23.82
2022-09-01T12:16:06.950Z,23.76
2022-09-01T12:18:39.716Z,23.77
2022-09-01T12:21:08.288Z,23.87
2022-09-01T12:23:40.409Z,24.03
2022-09-01T12:26:14.020Z,24.09
2022-09-01T12:28:41.830Z,24.08
2022-09-01T12:31:15.677Z,24.00
2022-09-01T12:33:46.701Z,24.02
2022-09-01T12:36:15.522Z,24.07
2022-09-01T12:38:42.639Z,24.22
2022-09-01T12:41:35.412Z,24.32
2022-09-01T12:44:31.578Z,24.39
2022-09-01T12:47:02.783Z,24.45
2022-09-01T12:49:47.825Z,24.51
2022-09-01T12:52:20.012Z,24.56
2022-09-01T12:54:50.347Z,24.54
2022-09-01T12:57:35.493Z,24.59
2022-09-01T13:00:11.827Z,24.73
2022-09-01T13:02:41.380Z,24.76
2022-09-01T13:05:40.918Z,24.52
2022-09-01T13:08:11.354Z,24.45
2022-09-01T13:10:41.159Z,24.69
2022-09-01T13:13:09.354Z,24.95
2022-09-01T13:15:38.335Z,25.11
2022-09-01T13:18:05.142Z,25.26
2022-09-01T13:20:31.816Z,25.25
2022-09-01T13:22:59.110Z,25.29
2022-09-01T13:25:26.973Z,25.26
2022-09-01T13:27:55.038Z,25.31
2022-09-01T13:30:25.002Z,25.41
2022-09-01T13:35:39.047Z,25.73
2022-09-01T13:38:05.648Z,25.90
2022-09-01T13:40:32.449Z,25.95
2022-09-01T13:42:59.126Z,25.71
2022-09-01T13:45:26.273Z,25.86
2022-09-01T13:53:27.338Z,25.48
2022-09-01T13:55:54.031Z,25.55
2022-09-01T13:58:20.655Z,25.87
2022-09-01T14:00:48.285Z,26.24
2022-09-01T14:03:19.411Z,26.23
2022-09-01T14:05:48.499Z,26.36
2022-09-01T14:08:19.405Z,26.04
2022-09-01T14:10:50.855Z,25.69
2022-09-01T14:13:19.689Z,25.75
2022-09-01T14:15:47.215Z,26.00
2022-09-01T14:18:15.540Z,26.37
2022-09-01T14:20:45.692Z,26.33
2022-09-01T14:23:13.591Z,25.92
2022-09-01T14:25:50.019Z,25.97
2022-09-01T14:28:20.409Z,26.10
2022-09-01T14:30:48.653Z,26.36
2022-09-01T14:33:15.334Z,26.11
2022-09-01T14:35:46.184Z,25.93
2022-09-01T14:38:13.891Z,25.85
2022-09-01T14:40:41.727Z,26.06
2022-09-01T14:43:12.446Z,26.15
2022-09-01T14:45:38.999Z,26.13
2022-09-01T14:48:07.209Z,25.93
2022-09-01T14:50:35.038Z,25.89
2022-09-01T14:53:03.369Z,26.02
2022-09-01T14:55:31.966Z,26.28
2022-09-01T14:58:00.400Z,26.38
2022-09-01T15:00:27.920Z,26.34
2022-09-01T15:02:55.678Z,26.03
2022-09-01T15:05:24.045Z,25.69
2022-09-01T15:07:51.305Z,25.35
2022-09-01T15:10:26.189Z,25.09
2022-09-01T15:12:55.409Z,25.13
2022-09-01T15:15:22.923Z,25.21
2022-09-01T15:17:49.511Z,25.23
2022-09-01T15:20:34.887Z,25.19
2022-09-01T15:23:02.681Z,25.22
2022-09-01T15:25:29.542Z,25.11
2022-09-01T15:27:56.224Z,25.13
2022-09-01T15:30:22.876Z,25.06
2022-09-01T15:32:52.798Z,24.93
2022-09-01T15:35:20.948Z,24.89
2022-09-01T15:37:48.994Z,24.85
2022-09-01T15:40:16.292Z,24.87
2022-09-01T15:42:46.348Z,24.81
2022-09-01T15:45:18.085Z,24.82
2022-09-01T15:47:46.041Z,24.77
2022-09-01T15:50:21.141Z,24.67
2022-09-01T15:53:01.610Z,24.68
2022-09-01T15:55:38.740Z,24.75
2022-09-01T15:58:05.361Z,24.72
2022-09-01T16:00:32.783Z,24.73
2022-09-01T16:03:01.869Z,24.71
2022-09-01T16:05:31.609Z,24.74
2022-09-01T16:08:01.474Z,24.66
2022-09-01T16:10:32.409Z,24.63
2022-09-01T16:13:02.209Z,24.66
2022-09-01T16:15:30.726Z,24.61
2022-09-01T16:18:42.002Z,24.63
2022-09-01T16:21:23.978Z,24.53
2022-09-01T16:23:53.665Z,24.62
2022-09-01T16:26:23.840Z,24.59
2022-09-01T16:28:54.615Z,24.52
2022-09-01T16:31:28.019Z,24.45
2022-09-01T16:33:58.927Z,24.41
2022-09-01T16:36:56.625Z,24.36
2022-09-01T16:39:40.597Z,24.33
2022-09-01T16:42:37.645Z,24.26
2022-09-01T16:45:32.102Z,24.21
2022-09-01T16:48:20.118Z,24.17
2022-09-01T16:51:03.295Z,24.18
2022-09-01T16:53:38.844Z,24.22
2022-09-01T16:56:09.086Z,24.21
2022-09-01T16:58:58.706Z,24.14
2022-09-01T17:01:31.673Z,24.13
2022-09-01T17:04:26.251Z,24.08
2022-09-01T17:07:02.713Z,24.03
2022-09-01T17:09:40.632Z,24.01
2022-09-01T17:12:33.295Z,24.02
2022-09-01T17:15:10.260Z,23.99
2022-09-01T17:17:44.975Z,23.93
2022-09-01T17:20:14.065Z,23.96
2022-09-01T17:22:49.581Z,23.97
2022-09-01T17:25:29.688Z,23.92
2022-09-01T17:28:04.488Z,23.88
2022-09-01T17:30:34.586Z,23.83
2022-09-01T17:33:23.265Z,23.82
2022-09-01T17:36:24.052Z,23.77
2022-09-01T17:39:17.156Z,23.69
2022-09-01T17:42:12.996Z,23.64
2022-09-01T17:44:45.488Z,23.62
2022-09-01T17:47:46.993Z,23.57
2022-09-01T17:50:54.951Z,23.55
2022-09-01T17:53:46.532Z,23.47
2022-09-01T17:56:13.099Z,23.44
2022-09-01T17:59:04.396Z,23.36
2022-09-01T18:01:58.725Z,23.30
2022-09-01T18:04:47.260Z,23.27
2022-09-01T18:07:32.527Z,23.21
2022-09-01T18:10:02.573Z,23.15
2022-09-01T18:12:38.033Z,23.10
2022-09-01T18:15:09.464Z,23.08
2022-09-01T18:17:43.629Z,23.05
2022-09-01T18:20:24.694Z,22.97
2022-09-01T18:23:06.439Z,22.94
2022-09-01T18:25:48.192Z,22.87
2022-09-01T18:28:15.862Z,22.81
2022-09-01T18:30:57.648Z,22.79
2022-09-01T18:33:26.006Z,22.73
2022-09-01T18:36:07.730Z,22.68
2022-09-01T18:38:47.482Z,22.61
2022-09-01T18:41:16.841Z,22.58
2022-09-01T18:43:51.946Z,22.55
2022-09-01T18:46:54.627Z,22.49
2022-09-01T18:49:51.647Z,22.47
2022-09-01T18:52:32.213Z,22.40
2022-09-01T18:55:22.530Z,22.34
2022-09-01T18:57:53.326Z,22.32
2022-09-01T19:00:25.621Z,22.28
2022-09-01T19:03:08.674Z,22.24
2022-09-01T19:05:38.436Z,22.21
2022-09-01T19:08:23.797Z,22.10
2022-09-01T19:10:56.337Z,22.09
2022-09-01T19:14:00.149Z,22.08
2022-09-01T19:16:42.406Z,22.04
2022-09-01T19:19:24.098Z,22.02
2022-09-01T19:21:55.890Z,21.98
2022-09-01T19:24:30.923Z,21.92
2022-09-01T19:27:03.407Z,21.89
2022-09-01T19:29:36.822Z,21.85
2022-09-01T19:32:08.810Z,21.83
2022-09-01T19:34:45.328Z,21.82
2022-09-01T19:37:12.507Z,21.78
2022-09-01T19:39:44.554Z,21.75
2022-09-01T19:42:20.250Z,21.73
2022-09-01T19:45:17.450Z,21.67
2022-09-01T19:47:49.645Z,21.63
2022-09-01T19:50:31.214Z,21.58
2022-09-01T19:53:18.330Z,21.53
2022-09-01T19:56:14.424Z,21.51
2022-09-01T19:59:09.717Z,21.47
2022-09-01T20:01:47.720Z,21.40
2022-09-01T20:04:24.353Z,21.36
2022-09-01T20:06:58.335Z,21.32
2022-09-01T20:10:00.637Z,21.26
2022-09-01T20:12:40.133Z,21.22
2022-09-01T20:15:24.554Z,21.21
2022-09-01T20:18:06.119Z,21.20
2022-09-01T20:20:43.475Z,21.17
2022-09-01T20:23:15.846Z,21.14
2022-09-01T20:25:47.576Z,21.13
2022-09-01T20:28:44.463Z,21.06
2022-09-01T20:31:19.084Z,21.03
2022-09-01T20:33:49.614Z,20.99
2022-09-01T20:36:34.184Z,20.94
2022-09-01T20:39:38.078Z,20.92
2022-09-01T20:42:37.286Z,20.90
2022-09-01T20:45:24.740Z,20.88
2022-09-01T20:48:06.482Z,20.86
2022-09-01T20:50:43.375Z,20.82
2022-09-01T20:53:17.676Z,20.75
2022-09-01T20:56:04.926Z,20.73
2022-09-01T20:58:40.497Z,20.68
2022-09-01T21:01:19.689Z,20.64
2022-09-01T21:03:53.665Z,20.63
2022-09-01T21:06:21.242Z,20.61
2022-09-01T21:09:02.776Z,20.56
2022-09-01T21:11:51.490Z,20.57
2022-09-01T21:14:53.288Z,20.54
2022-09-01T21:17:39.329Z,20.50
2022-09-01T21:20:33.206Z,20.44
2022-09-01T21:23:00.972Z,20.41
2022-09-01T21:25:28.494Z,20.33
2022-09-01T21:27:58.642Z,20.32
2022-09-01T21:30:29.724Z,20.31
2022-09-01T21:32:57.170Z,20.29
2022-09-01T21:35:24.463Z,20.22
2022-09-01T21:37:51.810Z,20.16
2022-09-01T21:40:20.387Z,20.13
2022-09-01T21:43:18.585Z,20.10
2022-09-01T21:45:45.723Z,20.06
2022-09-01T21:48:12.753Z,20.03
2022-09-01T21:50:42.580Z,20.04
2022-09-01T21:53:10.595Z,20.04
2022-09-01T21:55:37.864Z,20.00
2022-09-01T21:58:04.472Z,19.95
2022-09-01T22:00:33.568Z,19.94
2022-09-01T22:03:01.889Z,19.88
2022-09-01T22:05:31.161Z,19.85
2022-09-01T22:07:59.100Z,19.83
2022-09-01T22:10:28.122Z,19.81
2022-09-01T22:12:55.845Z,19.76
2022-09-01T22:15:24.860Z,19.68
2022-09-01T22:17:55.432Z,19.64
2022-09-01T22:20:23.490Z,19.57
2022-09-01T22:22:51.018Z,19.52
2022-09-01T22:25:20.057Z,19.49
2022-09-01T22:27:47.035Z,19.49
2022-09-01T22:30:14.142Z,19.46
2022-09-01T22:32:45.940Z,19.43
2022-09-01T22:35:14.096Z,19.42
2022-09-01T22:37:41.129Z,19.38
2022-09-01T22:40:08.901Z,19.35
2022-09-01T22:42:36.237Z,19.32
2022-09-01T22:45:04.388Z,19.28
2022-09-01T22:47:30.985Z,19.25
2022-09-01T22:50:02.264Z,19.25
2022-09-01T22:52:29.997Z,19.21
2022-09-01T22:54:57.300Z,19.17
2022-09-01T22:57:24.745Z,19.14
2022-09-01T22:59:51.381Z,19.11
2022-09-01T23:02:19.432Z,19.09
2022-09-01T23:04:46.738Z,19.09
2022-09-01T23:07:13.686Z,19.06
2022-09-01T23:09:40.396Z,19.04
2022-09-01T23:12:07.614Z,19.05
2022-09-01T23:14:34.448Z,19.03
2022-09-01T23:17:01.827Z,18.99
2022-09-01T23:19:28.855Z,19.00
2022-09-01T23:21:55.433Z,18.96
2022-09-01T23:24:23.272Z,18.89
2022-09-01T23:26:49.902Z,18.91
2022-09-01T23:29:17.479Z,18.86
2022-09-01T23:31:45.129Z,18.82
2022-09-01T23:34:13.329Z,18.79
2022-09-01T23:36:40.969Z,18.80
2022-09-01T23:39:08.111Z,18.76
2022-09-01T23:41:36.932Z,18.78
2022-09-01T23:44:06.277Z,18.76
2022-09-01T23:46:37.062Z,18.73
2022-09-01T23:49:04.863Z,18.75
2022-09-01T23:51:31.595Z,18.68
2022-09-01T23:53:58.372Z,18.71
2022-09-01T23:56:27.257Z,18.68
2022-09-01T23:58:54.567Z,18.59
